Vick, Louisiana
Current Conditions -  °F | °C
As of 5:53 AM on Tuesday 27 Jan 2015 (Local Time) from KESF Reporting Station
Clear Clear  
Wind Chill: 43°   Ceiling: Unl
Heat Index: 43°   Visibility: 10mi
Dew Point: 37°   Wind: 3mph
Humidity: 80%   Direction: 270°W
Pressure: 30.06"   Gusts: NA
Location:  31.269°N, 92.0664°W
Report Text: KESF 271153Z AUTO 27003KT 10SM CLR 06/03 A3006 RMK AO2 SLP179 T00610028 10083 20033 53001
Loading
Personal Weather Stations






























Interactive Weather Map New forecast layout! Learn more

10-Day Weather Forecast

Advertisements
Track Severe Weather on mobile